Flight Track Log - Related Links

Times and Time Zones

All times are in EST time to prevent confusion due to time zone crossing. See the GGN7268 flight status page for this flight to view local times or setup timezone preferences in your user account.

Time Position Orientation Groundspeed Altitude Reporting Facility
EST Latitude Longitude Course Direction KTS MPH feet Rate Location/Type
Sun 04:00:17 PM 43.6458 -79.4261 115° Southeast 206 237 4,300  Level New York Center
Sun 04:00:55 PM 43.6167 -79.3500 118° Southeast 200 230 6,000 1,645 Climbing Toronto Center
Sun 04:03:23 PM 43.5553 -79.2153 122° Southeast 215 247 9,400 1,400 Climbing New York Center
Sun 04:03:55 PM 43.5333 -79.1500 115° Southeast 220 253 10,200 1,370 Climbing Toronto Center
Sun 04:04:00 PM 43.6707 -79.6114 115° Southeast  Level FlightAware Approximate
Sun 04:04:55 PM 43.4833 -79.0833 136° Southeast 230 265 11,500  Level Toronto Center
Sun 04:05:00 PM 43.6444 -79.5333 115° Southeast  Level FlightAware Approximate
Sun 04:06:26 PM 43.4564 -78.9922 112° Southeast 235 270 12,900  Level Cleveland Center
Sun 04:07:28 PM 43.4181 -78.9053 121° Southeast 263 303 12,900 660 Level Cleveland Center
Sun 04:09:37 PM 43.3294 -78.7256 124° Southeast 253 291 15,000 942 Climbing New York Center
Sun 04:10:39 PM 43.2906 -78.6461 124° Southeast 253 291 15,900 823 Climbing New York Center
Sun 04:11:41 PM 43.2439 -78.5500 124° Southeast 253 291 16,700 655 Climbing New York Center
Sun 04:12:38 PM 43.2122 -78.4883 125° Southeast 253 291 17,200 530 Climbing Cleveland Center
Sun 04:14:42 PM 43.0864 -78.4097 155° Southeast 230 265 18,300 402 Climbing Cleveland Center
Sun 04:16:52 PM 42.9622 -78.3439 159° South 237 273 18,900 188 Climbing New York Center
Sun 04:17:54 PM 42.8839 -78.3056 160° South 245 282 18,900  Level New York Center
Sun 04:18:57 PM 42.8181 -78.2708 159° South 250 288 18,900  Level New York Center
Sun 04:19:59 PM 42.7528 -78.2397 161° South 250 288 18,900  Level New York Center
Sun 04:21:01 PM 42.6817 -78.2050 160° South 249 287 18,900  Level New York Center
Sun 04:21:56 PM 42.6286 -78.1989 175° South 231 266 18,900  Level Cleveland Center
Sun 04:22:58 PM 42.5639 -78.1758 165° South 241 277 18,900  Level Cleveland Center
Sun 04:24:00 PM 42.5008 -78.1408 158° South 247 284 18,900  Level Cleveland Center
Sun 04:25:02 PM 42.4378 -78.1097 160° South 244 281 18,900  Level Cleveland Center
Sun 04:26:04 PM 42.3631 -78.0714 159° South 242 278 18,900  Level Cleveland Center
Sun 04:28:16 PM 42.2878 -78.1111 201° Southwest 200 230 18,900  Level New York Center
Sun 04:29:37 PM 42.3167 -78.1667 305° West 210 242 18,900  Level Toronto Center
Sun 04:30:12 PM 42.3572 -78.2211 315° West 233 268 18,900  Level Cleveland Center
Sun 04:31:14 PM 42.4186 -78.2606 335° Northwest 244 281 18,900  Level Cleveland Center
Sun 04:32:16 PM 42.4933 -78.3083 335° Northwest 246 283 18,900  Level Cleveland Center
Sun 04:33:18 PM 42.5419 -78.3647 319° Northwest 230 265 18,900  Level Cleveland Center
Sun 04:34:20 PM 42.5850 -78.4253 314° West 223 257 18,900  Level Cleveland Center
Sun 04:35:22 PM 42.6314 -78.4825 318° Northwest 225 259 18,900 -97 Level Cleveland Center
Sun 04:36:24 PM 42.6772 -78.5425 316° Northwest 229 264 18,700 -774 Descending Cleveland Center
Sun 04:37:26 PM 42.7264 -78.6067 316° Northwest 246 283 17,300 -1,403 Descending Cleveland Center
Sun 04:38:28 PM 42.7800 -78.6739 317° Northwest 259 298 15,800 -1,561 Descending Cleveland Center
Sun 04:39:29 PM 42.8411 -78.7528 317° Northwest 255 293 14,100 -927 Descending Cleveland Center
Sun 04:40:31 PM 42.8889 -78.8142 317° Northwest 238 274 13,900 -97 Descending Cleveland Center
Sun 04:41:33 PM 42.9300 -78.8678 316° Northwest 209 241 13,900 -128 Level Cleveland Center
Sun 04:43:38 PM 43.0167 -78.9667 320° Northwest 230 265 13,500 -616 Descending Toronto Center
Sun 04:44:38 PM 43.0667 -79.0333 316° Northwest 250 288 12,000 -1,100 Descending Toronto Center
Sun 04:46:38 PM 43.1667 -79.1500 320° Northwest 230 265 10,200 -933 Descending Toronto Center
Sun 04:47:38 PM 43.2000 -79.2167 304° West 240 276 9,200 -325 Descending Toronto Center
Sun 04:50:38 PM 43.3667 -79.3500 330° Northwest 240 276 8,900 -40 Descending Toronto Center
Sun 04:52:38 PM 43.5000 -79.4333 336° Northwest 240 276 9,000 33 Climbing Toronto Center
Sun 04:53:38 PM 43.5500 -79.4667 334° Northwest 230 265 9,000 -450 Level Toronto Center
Sun 04:54:38 PM 43.5833 -79.5333 305° West 220 253 8,100 -1,050 Descending Toronto Center
Sun 04:55:38 PM 43.5500 -79.5833 227° Southwest 220 253 6,900 -1,300 Descending Toronto Center
Sun 04:57:38 PM 43.4500 -79.7167 224° Southwest 240 276 4,200 -1,000 Descending Toronto Center
Sun 04:58:38 PM 43.4167 -79.7667 227° Southwest 210 242 3,900 -150 Descending Toronto Center
Sun 04:59:38 PM 43.3833 -79.8333 235° Southwest 190 219 3,900  Level Toronto Center
Sun 05:00:38 PM 43.4167 -79.8833 313° West 180 207 3,900  Level Toronto Center
Sun 05:01:38 PM 43.4667 -79.8833 360° North 170 196 3,900  Level Toronto Center
Sun 05:02:38 PM 43.5000 -79.8667 20° North 170 196 3,900 -450 Level Toronto Center
Sun 05:03:38 PM 43.5500 -79.8167 36° Northeast 180 207 3,000 -450 Descending Toronto Center
Sun 05:04:38 PM 43.5667 -79.7667 65° Northeast 160 184 3,000 -467 Level Toronto Center
Sun 05:06:38 PM 43.6333 -79.6833 42° Northeast 160 184 1,600 -700 Descending Toronto Center

Login

Don't have an account? Register now (free) for customized features, flight alerts, and more!